Time;durP1;ratioP1;P1;durP2;ratioP2;P2;SDS_P1;SDS_P2;PMS_P1;PMS_P2;Temp;Humidity;BMP_temperature;BMP_pressure;BME280_temperature;BME280_humidity;BME280_pressure;Samples;Min_cycle;Max_cycle;Signal;HPM_P1;HPM_P2
2023/04/04 00:00:33;;;;;;;6.87;3.23;;;;;;;-0.13;60.95;101131.69;1755784;81;32060;-64
2023/04/04 00:03:02;;;;;;;4.37;2.90;;;;;;;-0.14;61.37;101128.72;1678856;84;25487;-64
2023/04/04 00:05:28;;;;;;;6.35;2.90;;;;;;;-0.21;61.47;101126.91;1755922;81;25891;-63
2023/04/04 00:07:54;;;;;;;6.37;2.95;;;;;;;-0.25;61.64;101128.91;1736683;81;32410;-63
2023/04/04 00:10:20;;;;;;;5.58;2.67;;;;;;;-0.28;61.74;101125.36;1755951;81;27345;-64
2023/04/04 00:12:46;;;;;;;6.17;2.83;;;;;;;-0.31;61.87;101125.78;1755807;81;25574;-64
2023/04/04 00:15:13;;;;;;;6.08;2.85;;;;;;;-0.34;62.11;101127.53;1755891;81;25530;-64
2023/04/04 00:17:39;;;;;;;7.50;3.20;;;;;;;-0.37;62.09;101116.83;1755899;81;25532;-64
2023/04/04 00:20:08;;;;;;;6.08;2.80;;;;;;;-0.39;62.32;101124.21;1756061;81;25580;-64
2023/04/04 00:22:34;;;;;;;7.25;3.30;;;;;;;-0.41;62.61;101117.78;1736405;81;27488;-64
2023/04/04 00:25:01;;;;;;;9.68;3.33;;;;;;;-0.42;62.70;101114.00;1756035;81;27167;-64
2023/04/04 00:27:27;;;;;;;6.25;2.77;;;;;;;-0.44;62.45;101122.19;1679024;85;25393;-64
2023/04/04 00:29:53;;;;;;;7.10;2.87;;;;;;;-0.45;62.68;101118.42;1756056;81;26037;-64
2023/04/04 00:32:19;;;;;;;7.40;2.77;;;;;;;-0.47;63.09;101108.52;1756028;81;25556;-64
2023/04/04 00:34:52;;;;;;;4.28;2.77;;;;;;;-0.48;63.13;101120.98;1755979;81;27377;-64
2023/04/04 00:37:20;;;;;;;8.30;3.00;;;;;;;-0.51;63.22;101120.10;1755975;81;25620;-64
2023/04/04 00:39:46;;;;;;;8.00;2.90;;;;;;;-0.54;63.18;101119.20;1756060;81;25562;-64
2023/04/04 00:42:12;;;;;;;7.47;2.90;;;;;;;-0.54;63.23;101118.39;1755948;81;35144;-64
2023/04/04 00:44:39;;;;;;;6.90;3.10;;;;;;;-0.58;63.44;101117.98;1756067;81;25439;-64
2023/04/04 00:47:06;;;;;;;8.20;3.33;;;;;;;-0.62;63.43;101114.94;1736995;81;27382;-64
2023/04/04 00:49:33;;;;;;;6.87;2.80;;;;;;;-0.66;63.39;101108.95;1678949;85;25571;-64
2023/04/04 00:52:00;;;;;;;6.20;3.52;;;;;;;-0.72;63.60;101105.30;1755900;81;25594;-63
2023/04/04 00:54:26;;;;;;;10.15;2.98;;;;;;;-0.79;63.81;101106.66;1736638;81;26322;-63
2023/04/04 00:56:54;;;;;;;4.87;3.12;;;;;;;-0.86;63.73;101105.89;1756010;81;25604;-63
2023/04/04 00:59:23;;;;;;;7.40;3.37;;;;;;;-0.91;63.61;101108.37;1756059;81;27322;-63
2023/04/04 01:01:49;;;;;;;5.50;2.80;;;;;;;-0.97;63.81;101105.22;1679194;84;25514;-63
2023/04/04 01:04:16;;;;;;;10.32;3.45;;;;;;;-1.01;64.08;101102.70;1755988;81;25433;-64
2023/04/04 01:06:44;;;;;;;9.10;4.40;;;;;;;-1.07;64.23;101101.72;1678976;85;25403;-64
2023/04/04 01:09:12;;;;;;;5.85;3.15;;;;;;;-1.15;64.52;101092.66;1756055;81;25631;-63
2023/04/04 01:11:39;;;;;;;5.20;3.25;;;;;;;-1.22;64.81;101081.27;1756016;81;27330;-64
2023/04/04 01:14:05;;;;;;;6.37;2.80;;;;;;;-1.26;65.00;101081.37;1678960;84;25438;-63
2023/04/04 01:16:34;;;;;;;6.67;2.83;;;;;;;-1.33;65.24;101080.90;1755977;81;25672;-63
2023/04/04 01:19:02;;;;;;;5.10;3.08;;;;;;;-1.39;65.39;101078.27;1679087;85;25636;-63
2023/04/04 01:21:29;;;;;;;5.85;3.30;;;;;;;-1.44;65.42;101074.10;1756023;81;25399;-63
2023/04/04 01:24:02;;;;;;;7.92;2.85;;;;;;;-1.50;65.66;101077.06;1756021;81;27322;-63
2023/04/04 01:26:30;;;;;;;9.75;3.12;;;;;;;-1.57;65.81;101078.41;1755966;81;25564;-63
2023/04/04 01:28:58;;;;;;;10.03;3.17;;;;;;;-1.62;65.97;101074.23;1679005;85;25433;-63
2023/04/04 01:31:40;;;;;;;6.78;3.22;;;;;;;-1.67;66.15;101069.27;1755982;81;25478;-63
2023/04/04 01:34:17;;;;;;;7.35;3.27;;;;;;;-1.72;66.49;101067.23;1679054;85;25414;-63
2023/04/04 01:36:55;;;;;;;6.60;3.22;;;;;;;-1.79;66.44;101063.27;1756061;81;27256;-63
2023/04/04 01:39:51;;;;;;;4.97;2.62;;;;;;;-1.86;66.69;101062.99;1735627;81;25967;-63
2023/04/04 01:42:19;;;;;;;6.30;2.50;;;;;;;-1.92;66.97;101062.80;1755978;81;25608;-63
2023/04/04 01:44:46;;;;;;;4.80;3.02;;;;;;;-1.97;67.30;101064.45;1668650;85;25427;-63
2023/04/04 01:47:12;;;;;;;6.50;2.85;;;;;;;-2.00;67.65;101066.98;1756019;81;25624;-63
2023/04/04 01:49:41;;;;;;;4.20;2.50;;;;;;;-2.04;67.75;101068.44;1756004;81;27323;-63
2023/04/04 01:52:08;;;;;;;9.00;2.80;;;;;;;-2.07;68.05;101066.19;1755897;81;25927;-63
2023/04/04 01:54:35;;;;;;;5.85;2.80;;;;;;;-2.12;68.16;101064.15;1736529;81;25641;-63
2023/04/04 01:57:02;;;;;;;5.67;3.00;;;;;;;-2.16;68.27;101062.94;1756026;81;25568;-63
2023/04/04 01:59:28;;;;;;;6.85;3.20;;;;;;;-2.17;68.37;101068.45;1755977;81;25432;-63
2023/04/04 02:01:56;;;;;;;6.42;2.47;;;;;;;-2.19;68.31;101070.49;1755945;81;27333;-63
2023/04/04 02:04:22;;;;;;;4.28;2.58;;;;;;;-2.23;68.69;101072.73;1755908;81;25631;-63
2023/04/04 02:06:49;;;;;;;9.88;3.67;;;;;;;-2.24;68.82;101074.27;1755951;81;25595;-63
2023/04/04 02:09:15;;;;;;;6.75;2.85;;;;;;;-2.27;68.89;101072.31;1755909;81;27498;-63
2023/04/04 02:11:42;;;;;;;5.78;2.40;;;;;;;-2.29;69.00;101076.20;1756020;81;25628;-63
2023/04/04 02:14:08;;;;;;;7.67;2.60;;;;;;;-2.33;69.11;101073.66;1755928;81;27338;-63
2023/04/04 02:16:35;;;;;;;7.25;2.92;;;;;;;-2.37;69.12;101070.58;1755851;81;25541;-63
2023/04/04 02:19:02;;;;;;;6.87;2.47;;;;;;;-2.40;69.35;101064.39;1679083;85;25595;-63
2023/04/04 02:21:28;;;;;;;5.55;2.87;;;;;;;-2.44;69.49;101063.95;1755931;81;26083;-63
2023/04/04 02:23:54;;;;;;;8.38;2.60;;;;;;;-2.45;69.51;101068.96;1755978;81;25584;-63
2023/04/04 02:26:21;;;;;;;5.25;2.67;;;;;;;-2.48;69.72;101068.55;1755903;81;27333;-63
2023/04/04 02:28:47;;;;;;;5.67;2.83;;;;;;;-2.52;69.86;101065.50;1755882;81;25571;-63
2023/04/04 02:31:13;;;;;;;5.60;2.20;;;;;;;-2.55;69.84;101065.09;1755976;81;25401;-63
2023/04/04 02:33:40;;;;;;;7.47;2.72;;;;;;;-2.58;70.14;101068.14;1755921;81;34241;-63
2023/04/04 02:36:07;;;;;;;5.20;2.77;;;;;;;-2.60;70.27;101072.31;1755987;81;25403;-63
2023/04/04 02:38:34;;;;;;;5.35;2.67;;;;;;;-2.61;70.47;101072.52;1740595;81;27588;-63
2023/04/04 02:41:00;;;;;;;4.58;2.90;;;;;;;-2.64;70.62;101067.94;1755802;81;25435;-63
2023/04/04 02:43:26;;;;;;;8.13;3.43;;;;;;;-2.66;70.83;101070.47;1755910;81;25430;-63
2023/04/04 02:45:52;;;;;;;6.20;3.05;;;;;;;-2.69;70.73;101061.59;1755947;81;34733;-63
2023/04/04 02:48:18;;;;;;;4.37;2.70;;;;;;;-2.71;70.92;101068.41;1755988;81;25483;-62
2023/04/04 02:50:48;;;;;;;5.87;2.77;;;;;;;-2.74;70.85;101063.55;1755918;81;27384;-63
2023/04/04 02:53:15;;;;;;;9.88;3.17;;;;;;;-2.76;70.91;101063.42;1754597;81;25612;-63
2023/04/04 02:55:42;;;;;;;7.17;2.95;;;;;;;-2.79;71.01;101062.50;1751106;82;25417;-62
2023/04/04 02:58:08;;;;;;;6.05;2.58;;;;;;;-2.80;71.27;101066.18;1751096;82;25911;-62
2023/04/04 03:00:35;;;;;;;3.98;2.37;;;;;;;-2.81;71.40;101070.64;1751126;82;25542;-62
2023/04/04 03:03:01;;;;;;;7.37;2.50;;;;;;;-2.84;71.43;101073.20;1751114;82;27743;-63
2023/04/04 03:05:30;;;;;;;8.75;2.87;;;;;;;-2.85;71.52;101073.39;1751013;82;27306;-62
2023/04/04 03:07:58;;;;;;;6.33;2.95;;;;;;;-2.89;71.75;101066.36;1751138;82;25403;-62
2023/04/04 03:10:31;;;;;;;9.25;2.75;;;;;;;-2.88;71.76;101078.59;1751109;82;25622;-62
2023/04/04 03:12:58;;;;;;;5.17;2.72;;;;;;;-2.90;71.92;101080.61;1751155;82;25582;-62
2023/04/04 03:15:25;;;;;;;6.20;3.25;;;;;;;-2.90;71.96;101067.36;1674575;85;27906;-61
2023/04/04 03:17:53;;;;;;;7.35;2.40;;;;;;;-2.91;72.13;101070.21;1751067;82;25666;-61
2023/04/04 03:20:20;;;;;;;7.72;2.95;;;;;;;-2.92;72.42;101072.05;1751106;82;25597;-61
2023/04/04 03:22:48;;;;;;;3.95;2.30;;;;;;;-2.94;72.51;101068.80;1731561;82;25645;-61
2023/04/04 03:25:15;;;;;;;4.17;3.00;;;;;;;-2.95;72.54;101075.61;1751186;82;25543;-62
2023/04/04 03:27:42;;;;;;;5.75;2.90;;;;;;;-2.97;72.59;101068.38;1751102;82;29367;-61
2023/04/04 03:30:11;;;;;;;6.15;3.27;;;;;;;-2.99;72.53;101068.58;1751013;82;25789;-61
2023/04/04 03:32:38;;;;;;;11.05;10.13;;;;;;;-3.02;72.75;101069.78;1751400;82;25625;-62
2023/04/04 03:35:06;;;;;;;73.40;68.07;;;;;;;-3.03;72.84;101069.98;1674542;85;25736;-61
2023/04/04 03:37:34;;;;;;;4.33;2.33;;;;;;;-3.06;73.03;101064.59;1751403;81;25575;-61
2023/04/04 03:40:01;;;;;;;9.85;3.27;;;;;;;-3.08;73.23;101067.95;1674566;85;27329;-61
2023/04/04 03:42:27;;;;;;;3.95;2.58;;;;;;;-3.07;73.32;101064.78;1750997;81;25465;-61
2023/04/04 03:44:54;;;;;;;13.05;2.70;;;;;;;-3.09;73.21;101071.59;1731090;82;25541;-61
2023/04/04 03:47:21;;;;;;;5.65;2.58;;;;;;;-3.10;73.41;101065.18;1751105;82;25617;-61
2023/04/04 03:49:51;;;;;;;4.25;2.30;;;;;;;-3.11;73.49;101065.70;1751133;82;25380;-62
2023/04/04 03:52:17;;;;;;;;;;;;;;;-3.13;73.54;101067.73;1750886;81;27869;-62
2023/04/04 03:54:45;;;;;;;24.70;22.80;;;;;;;-3.16;73.55;101067.31;1751175;81;25587;-62
2023/04/04 03:57:11;;;;;;;5.83;2.98;;;;;;;-3.18;73.61;101063.55;1674649;84;25665;-63
2023/04/04 03:59:37;;;;;;;6.62;3.22;;;;;;;-3.20;73.70;101064.26;1751207;81;27519;-63
2023/04/04 04:02:04;;;;;;;8.65;3.08;;;;;;;-3.21;73.86;101069.23;1751258;82;32742;-63
2023/04/04 04:04:30;;;;;;;6.67;3.05;;;;;;;-3.20;73.94;101072.20;1751317;82;27399;-63
2023/04/04 04:06:57;;;;;;;5.85;2.70;;;;;;;-3.20;74.07;101070.87;1751375;82;25613;-62
2023/04/04 04:09:24;;;;;;;7.70;2.62;;;;;;;-3.20;74.16;101069.55;1751578;82;25607;-62
2023/04/04 04:11:50;;;;;;;5.22;2.72;;;;;;;-3.21;74.26;101070.55;1751646;82;25441;-62
2023/04/04 04:14:16;;;;;;;10.15;2.83;;;;;;;-3.23;74.16;101065.97;1751438;82;32708;-62
2023/04/04 04:16:43;;;;;;;5.42;2.50;;;;;;;-3.24;74.26;101065.65;1751257;82;27319;-61
2023/04/04 04:19:11;;;;;;;7.08;3.80;;;;;;;-3.25;74.54;101053.42;1731885;82;25648;-60
2023/04/04 04:21:37;;;;;;;8.53;2.83;;;;;;;-3.26;74.68;101056.58;1751279;82;25540;-61
2023/04/04 04:24:05;;;;;;;7.00;3.27;;;;;;;-3.25;74.81;101052.09;1751316;82;25922;-61
2023/04/04 04:26:31;;;;;;;9.23;3.45;;;;;;;-3.25;75.04;101054.74;1751285;82;25631;-62
2023/04/04 04:28:57;;;;;;;11.00;3.45;;;;;;;-3.24;75.18;101059.84;1751262;82;27269;-60
2023/04/04 04:31:23;;;;;;;9.40;3.67;;;;;;;-3.26;75.34;101052.61;1751124;82;25544;-60
2023/04/04 04:33:49;;;;;;;7.80;2.83;;;;;;;-3.22;75.18;101055.67;1732019;82;25462;-61
2023/04/04 04:36:15;;;;;;;7.53;3.45;;;;;;;-3.21;75.19;101058.13;1751194;82;25467;-60
2023/04/04 04:38:41;;;;;;;11.28;3.98;;;;;;;-3.21;75.00;101058.64;1732060;82;25486;-60
2023/04/04 04:41:08;;;;;;;10.30;4.60;;;;;;;-3.17;75.09;101060.37;1751244;82;27316;-61
2023/04/04 04:43:35;;;;;;;11.90;5.37;;;;;;;-3.15;75.33;101062.31;1751126;82;25568;-61
2023/04/04 04:46:02;;;;;;;5.58;3.35;;;;;;;-3.14;75.41;101059.47;1751213;82;25426;-61
2023/04/04 04:48:28;;;;;;;6.80;3.42;;;;;;;-3.13;75.56;101059.79;1751208;82;25568;-61
2023/04/04 04:50:54;;;;;;;12.98;4.17;;;;;;;-3.08;75.80;101057.84;1751279;82;32458;-62
2023/04/04 04:53:20;;;;;;;8.88;4.50;;;;;;;-3.07;75.85;101058.17;1751227;82;27464;-59
2023/04/04 04:55:46;;;;;;;11.60;7.22;;;;;;;-3.04;75.97;101053.80;1670221;84;25534;-60
2023/04/04 04:58:15;;;;;;;15.50;6.95;;;;;;;-3.00;76.01;101061.64;1749094;82;25549;-62
2023/04/04 05:00:40;;;;;;;8.85;3.98;;;;;;;-2.97;76.08;101049.85;1670172;85;25386;-61
2023/04/04 05:03:07;;;;;;;10.88;9.35;;;;;;;-2.92;76.14;101050.06;1749109;82;25371;-61
2023/04/04 05:05:35;;;;;;;13.35;6.40;;;;;;;-2.89;76.26;101055.77;1749065;82;28159;-61
2023/04/04 05:08:02;;;;;;;11.40;6.97;;;;;;;-2.84;76.23;101052.02;1749003;82;25621;-61
2023/04/04 05:10:30;;;;;;;9.50;4.35;;;;;;;-2.78;76.32;101058.33;1749113;81;25399;-62
2023/04/04 05:12:57;;;;;;;10.35;4.65;;;;;;;-2.73;76.33;101050.59;1749034;82;25934;-61
2023/04/04 05:15:31;;;;;;;13.00;4.40;;;;;;;-2.66;76.26;101058.55;1749098;82;25603;-60
2023/04/04 05:17:58;;;;;;;7.58;3.60;;;;;;;-2.60;76.25;101056.42;1749057;82;27311;-62
2023/04/04 05:20:26;;;;;;;10.58;4.00;;;;;;;-2.55;76.32;101052.66;1662211;85;25620;-61
2023/04/04 05:22:53;;;;;;;9.85;3.90;;;;;;;-2.48;76.35;101050.01;1749072;82;25355;-61
2023/04/04 05:25:19;;;;;;;8.35;3.47;;;;;;;-2.40;76.29;101051.63;1670229;85;25613;-63
2023/04/04 05:27:49;;;;;;;8.60;4.42;;;;;;;-2.36;76.38;101051.02;1748980;81;25615;-63
2023/04/04 05:30:15;;;;;;;11.93;3.87;;;;;;;-2.28;76.35;101044.19;1670227;85;27411;-63
2023/04/04 05:32:45;;;;;;;8.40;6.10;;;;;;;-2.18;76.39;101042.95;1748946;82;25776;-64
2023/04/04 05:35:12;;;;;;;13.60;4.97;;;;;;;-2.10;76.29;101047.52;1731849;82;25598;-62
2023/04/04 05:37:40;;;;;;;22.55;20.48;;;;;;;-2.01;76.31;101045.49;1670284;85;25615;-62
2023/04/04 05:40:10;;;;;;;12.25;10.15;;;;;;;-1.89;76.17;101044.31;1749023;82;25640;-62
2023/04/04 05:42:37;;;;;;;50.35;46.68;;;;;;;-1.79;76.15;101050.52;1749021;82;27904;-64
2023/04/04 05:45:07;;;;;;;16.55;15.00;;;;;;;-1.68;76.04;101049.09;1748961;81;25635;-63
2023/04/04 05:47:33;;;;;;;45.23;42.08;;;;;;;-1.53;76.01;101047.80;1749212;81;25446;-64
2023/04/04 05:50:00;;;;;;;10.50;9.18;;;;;;;-1.40;75.82;101052.74;1698348;83;25449;-64
2023/04/04 05:52:26;;;;;;;63.55;59.18;;;;;;;-1.24;75.70;101052.77;1749072;82;25636;-64
2023/04/04 05:54:53;;;;;;;82.80;76.33;;;;;;;-1.07;75.42;101055.73;1750014;82;27379;-64
2023/04/04 05:57:20;;;;;;;21.50;19.48;;;;;;;-0.96;75.21;101051.09;1674135;85;27118;-64
2023/04/04 05:59:47;;;;;;;6.62;3.00;;;;;;;-0.73;75.36;101059.84;1751149;81;25614;-64
2023/04/04 06:02:13;;;;;;;6.53;3.15;;;;;;;-0.51;75.31;101057.64;1751093;82;25534;-65
2023/04/04 06:04:40;;;;;;;7.15;3.08;;;;;;;-0.30;74.77;101056.97;1751226;82;25484;-64
2023/04/04 06:07:08;;;;;;;8.70;3.33;;;;;;;-0.14;74.04;101050.27;1751152;82;27329;-64
2023/04/04 06:09:35;;;;;;;8.30;3.10;;;;;;;0.07;73.76;101048.53;1751054;82;25382;-64
2023/04/04 06:12:06;;;;;;;6.35;3.95;;;;;;;0.28;73.13;101049.94;1731830;82;25658;-64
2023/04/04 06:14:32;;;;;;;8.10;3.60;;;;;;;0.51;72.96;101054.60;1732482;82;27427;-65
2023/04/04 06:16:59;;;;;;;9.95;5.00;;;;;;;0.77;72.84;101050.48;1751136;82;25450;-64
2023/04/04 06:19:25;;;;;;;11.05;5.97;;;;;;;1.01;71.97;101047.41;1751205;81;27308;-65
2023/04/04 06:21:51;;;;;;;7.40;3.80;;;;;;;1.26;72.05;101047.23;1751027;82;25557;-65
2023/04/04 06:24:18;;;;;;;8.55;3.90;;;;;;;1.52;71.28;101046.02;1751126;82;25457;-65
2023/04/04 06:26:45;;;;;;;11.50;4.20;;;;;;;1.76;70.78;101052.72;1751130;82;25429;-65
2023/04/04 06:29:12;;;;;;;11.57;3.60;;;;;;;2.05;70.19;101042.42;1751181;82;25534;-64
2023/04/04 06:31:38;;;;;;;10.13;3.83;;;;;;;2.30;69.22;101049.88;1751111;82;27318;-64
2023/04/04 06:34:04;;;;;;;7.67;3.58;;;;;;;2.56;69.08;101046.69;1751096;82;25731;-65
2023/04/04 06:36:31;;;;;;;8.03;4.20;;;;;;;2.87;69.02;101045.94;1751133;82;25453;-65
2023/04/04 06:38:57;;;;;;;11.33;4.35;;;;;;;3.23;68.15;101043.09;1751117;82;25553;-64
2023/04/04 06:41:23;;;;;;;9.43;3.87;;;;;;;3.54;67.87;101044.41;1674563;85;25661;-64
2023/04/04 06:43:50;;;;;;;8.38;4.40;;;;;;;3.77;66.07;101038.62;1751116;81;27875;-63
2023/04/04 06:46:17;;;;;;;8.80;3.60;;;;;;;3.98;65.33;101031.67;1733405;82;25621;-64
2023/04/04 06:48:43;;;;;;;11.57;4.20;;;;;;;4.20;64.07;101024.47;1721241;83;25389;-63
2023/04/04 06:51:11;;;;;;;9.53;4.08;;;;;;;4.45;64.08;101028.55;1721223;83;26038;-65
2023/04/04 06:53:40;;;;;;;13.10;4.27;;;;;;;4.75;64.03;101031.28;1721503;83;25439;-65
2023/04/04 06:56:09;;;;;;;11.48;5.37;;;;;;;5.10;63.66;101030.83;1702667;83;27356;-64
2023/04/04 06:58:37;;;;;;;9.00;3.47;;;;;;;5.42;63.29;101036.20;1670044;85;25718;-64
2023/04/04 07:01:03;;;;;;;7.35;4.00;;;;;;;5.75;62.29;101036.18;1718935;83;25573;-64
2023/04/04 07:03:30;;;;;;;10.93;4.50;;;;;;;5.96;60.28;101037.17;1678926;83;25527;-65
2023/04/04 07:05:57;;;;;;;10.53;4.70;;;;;;;6.20;60.17;101035.39;1719148;83;25556;-64
2023/04/04 07:08:24;;;;;;;18.27;5.05;;;;;;;6.47;60.10;101039.27;1719220;83;27248;-65
2023/04/04 07:10:51;;;;;;;8.88;4.58;;;;;;;6.81;58.90;101040.19;1719046;83;25403;-65
2023/04/04 07:13:18;;;;;;;8.78;4.15;;;;;;;7.10;58.95;101040.54;1670168;85;25554;-65
2023/04/04 07:15:48;;;;;;;7.65;3.40;;;;;;;7.47;57.89;101039.46;1670105;85;25386;-65
2023/04/04 07:18:16;;;;;;;8.08;4.10;;;;;;;7.75;57.08;101024.64;1719170;83;25515;-65
2023/04/04 07:20:47;;;;;;;6.55;2.95;;;;;;;8.02;56.15;101028.36;1719146;83;27315;-63
2023/04/04 07:23:10;;;;;;;9.65;4.47;;;;;;;8.28;54.77;101025.58;1718127;83;25566;-64
2023/04/04 07:25:39;;;;;;;10.32;3.67;;;;;;;8.27;53.07;101028.00;1719125;83;25367;-64
2023/04/04 07:28:06;;;;;;;7.28;3.90;;;;;;;8.36;52.43;101024.19;1719222;83;25888;-64
2023/04/04 07:30:32;;;;;;;9.98;3.95;;;;;;;8.39;51.61;101024.47;1716557;83;25657;-64
2023/04/04 07:33:00;;;;;;;10.68;5.60;;;;;;;8.37;51.69;101025.26;1669410;85;28219;-64
2023/04/04 07:35:28;;;;;;;10.18;4.33;;;;;;;8.55;51.24;101025.22;1719196;83;25624;-63
2023/04/04 07:37:56;;;;;;;8.05;4.10;;;;;;;8.68;51.11;101021.65;1670288;85;25459;-63
2023/04/04 07:40:24;;;;;;;7.30;3.55;;;;;;;8.80;49.82;101022.11;1719329;83;25470;-63
2023/04/04 07:42:53;;;;;;;5.87;3.72;;;;;;;8.61;49.65;101024.64;1719247;83;25522;-63
2023/04/04 07:45:23;;;;;;;7.92;4.20;;;;;;;8.74;49.54;101025.94;1719235;83;27314;-63
2023/04/04 07:47:50;;;;;;;10.08;4.80;;;;;;;9.17;50.45;101016.75;1670181;85;25594;-63
2023/04/04 07:50:19;;;;;;;9.03;4.17;;;;;;;9.74;49.63;101018.43;1719239;83;25545;-66
2023/04/04 07:52:51;;;;;;;9.05;5.20;;;;;;;9.96;48.13;101023.34;1719387;83;32467;-64
2023/04/04 07:55:19;;;;;;;10.72;4.87;;;;;;;9.63;46.69;101022.31;1720007;82;25455;-64
2023/04/04 07:57:46;;;;;;;9.18;5.00;;;;;;;9.20;46.60;101014.84;1674658;84;27371;-63
2023/04/04 08:00:20;;;;;;;8.28;4.30;;;;;;;9.44;46.94;101013.55;1674542;85;25438;-65
2023/04/04 08:02:45;;;;;;;9.08;3.60;;;;;;;9.49;46.80;101007.31;1703092;83;25454;-64
2023/04/04 08:05:12;;;;;;;7.42;3.50;;;;;;;9.76;45.97;101000.59;1721277;83;27516;-65
2023/04/04 08:07:39;;;;;;;6.33;3.58;;;;;;;9.88;45.90;100999.09;1674679;84;25649;-64
2023/04/04 08:10:09;;;;;;;5.53;3.33;;;;;;;9.68;45.15;101000.09;1674629;85;27418;-65
2023/04/04 08:12:35;;;;;;;7.00;3.02;;;;;;;9.41;45.29;100999.82;1674715;85;32792;-64
2023/04/04 08:15:03;;;;;;;7.47;2.90;;;;;;;10.12;46.23;100985.33;1687155;84;26035;-63
2023/04/04 08:17:30;;;;;;;4.72;2.52;;;;;;;10.75;45.22;100986.40;1674108;85;25650;-63
2023/04/04 08:19:56;;;;;;;13.15;2.98;;;;;;;10.70;44.15;100991.89;1674333;85;25644;-63
2023/04/04 08:22:22;;;;;;;8.63;3.00;;;;;;;10.61;43.17;100995.00;1674565;84;27313;-63
2023/04/04 08:24:48;;;;;;;5.10;2.62;;;;;;;10.27;42.50;100991.89;1674510;84;25619;-62
2023/04/04 08:27:14;;;;;;;12.37;3.02;;;;;;;9.84;42.61;100987.78;1674643;85;29673;-62
2023/04/04 08:29:44;;;;;;;7.12;2.98;;;;;;;9.46;42.60;100986.27;1674708;85;25478;-63
2023/04/04 08:32:11;;;;;;;6.22;2.60;;;;;;;9.20;42.68;100986.50;1674835;84;25666;-63
2023/04/04 08:34:38;;;;;;;8.23;3.72;;;;;;;9.34;42.89;100975.84;1674665;85;27309;-63
2023/04/04 08:37:08;;;;;;;6.55;3.22;;;;;;;9.86;43.76;100968.85;1674033;85;26169;-63
2023/04/04 08:39:34;;;;;;;4.72;2.30;;;;;;;10.48;42.98;100968.12;1674759;85;25654;-63
2023/04/04 08:42:06;;;;;;;4.42;2.35;;;;;;;10.83;41.75;100975.48;1674639;84;26018;-63
2023/04/04 08:44:34;;;;;;;4.10;2.25;;;;;;;10.63;40.82;100985.48;1674699;84;25610;-63
2023/04/04 08:47:04;;;;;;;5.00;3.02;;;;;;;10.18;39.81;100983.63;1664631;85;27918;-63
2023/04/04 08:49:37;;;;;;;7.75;2.87;;;;;;;9.73;39.71;100980.34;1674631;85;25673;-64
2023/04/04 08:52:06;;;;;;;6.17;2.37;;;;;;;9.19;39.64;100979.47;1674729;85;25420;-64
2023/04/04 08:54:34;;;;;;;7.90;2.80;;;;;;;8.70;40.21;100978.50;1674776;85;25488;-65
2023/04/04 08:57:03;;;;;;;5.80;2.67;;;;;;;8.35;40.98;100974.86;1679068;84;25613;-64
2023/04/04 08:59:32;;;;;;;6.50;2.92;;;;;;;8.16;41.71;100976.03;1707283;83;27411;-64
2023/04/04 09:02:06;;;;;;;9.30;2.80;;;;;;;8.76;42.57;100974.66;1679075;84;25492;-64
2023/04/04 09:04:34;;;;;;;5.50;2.40;;;;;;;9.13;42.18;100975.22;1722301;82;25709;-64
2023/04/04 09:07:05;;;;;;;4.33;2.30;;;;;;;9.00;41.02;100971.81;1679192;85;25643;-65
2023/04/04 09:09:36;;;;;;;4.72;2.15;;;;;;;8.82;40.66;100972.76;1725941;83;25454;-65
2023/04/04 09:12:05;;;;;;;6.70;2.95;;;;;;;8.75;41.09;100966.84;1679052;85;28086;-65
2023/04/04 09:14:36;;;;;;;10.65;4.12;;;;;;;9.31;41.11;100965.61;1725924;83;29577;-65
2023/04/04 09:17:02;;;;;;;6.12;3.00;;;;;;;9.24;40.50;100966.48;1669047;85;25432;-65
2023/04/04 09:19:28;;;;;;;4.17;2.72;;;;;;;9.03;40.15;100970.70;1725959;83;25737;-65
2023/04/04 09:21:56;;;;;;;6.60;2.52;;;;;;;8.66;39.66;100967.98;1707071;83;25652;-70
2023/04/04 09:24:23;;;;;;;4.10;2.17;;;;;;;8.93;40.63;100972.13;1668956;85;27411;-69
2023/04/04 09:26:53;;;;;;;4.97;2.08;;;;;;;9.64;41.82;100971.27;1678921;85;25676;-70
2023/04/04 09:29:21;;;;;;;5.83;2.10;;;;;;;10.70;41.41;100962.13;1725943;83;25386;-66
2023/04/04 09:31:50;;;;;;;6.83;2.70;;;;;;;10.68;39.30;100978.41;1678967;85;25722;-65
2023/04/04 09:34:19;;;;;;;3.87;1.52;;;;;;;10.17;38.32;100967.14;1726073;83;25451;-66
2023/04/04 09:36:47;;;;;;;4.05;2.35;;;;;;;9.67;38.00;100975.55;1679141;84;27381;-66
2023/04/04 09:39:15;;;;;;;3.60;2.25;;;;;;;9.14;38.20;100970.90;1725826;83;25627;-66
2023/04/04 09:41:47;;;;;;;4.12;1.82;;;;;;;8.77;38.73;100973.59;1678703;85;25423;-66
2023/04/04 09:44:13;;;;;;;6.95;1.57;;;;;;;8.49;38.72;100972.39;1725836;83;25594;-66
2023/04/04 09:46:41;;;;;;;4.70;1.90;;;;;;;8.19;38.71;100967.95;1725635;83;25589;-66
2023/04/04 09:49:15;;;;;;;2.50;1.70;;;;;;;8.23;39.69;100969.00;1678936;85;27408;-65
2023/04/04 09:51:47;;;;;;;2.87;2.00;;;;;;;8.41;39.52;100960.30;1677011;84;25890;-65
2023/04/04 09:54:22;;;;;;;4.53;1.98;;;;;;;8.44;39.49;100968.38;1725944;83;25443;-65
2023/04/04 09:56:51;;;;;;;6.37;1.98;;;;;;;8.17;39.00;100966.05;1679658;84;25644;-64
2023/04/04 09:59:18;;;;;;;2.60;1.50;;;;;;;7.84;39.09;100961.59;1680122;85;25583;-68
2023/04/04 10:01:46;;;;;;;2.77;1.57;;;;;;;7.51;39.38;100976.47;1679954;85;27341;-70
2023/04/04 10:04:15;;;;;;;1.47;1.10;;;;;;;7.17;38.29;100978.37;1662280;85;25579;-71
2023/04/04 10:06:44;;;;;;;1.72;1.42;;;;;;;6.83;38.79;100977.56;1680052;85;25250;-68
2023/04/04 10:09:10;;;;;;;1.80;1.10;;;;;;;6.62;39.31;100971.32;1662024;85;25800;-68
2023/04/04 10:11:37;;;;;;;5.28;1.70;;;;;;;6.44;39.74;100973.44;1679918;85;25506;-69
2023/04/04 10:14:04;;;;;;;2.65;1.50;;;;;;;6.25;40.36;100979.83;1679860;85;27333;-68
2023/04/04 10:16:35;;;;;;;3.02;1.85;;;;;;;6.05;40.66;100973.03;1679826;85;26014;-68
2023/04/04 10:19:09;;;;;;;5.12;1.70;;;;;;;5.85;41.31;100981.20;1680051;85;25571;-69
2023/04/04 10:21:35;;;;;;;2.60;1.67;;;;;;;5.70;41.25;100974.41;1679392;85;26410;-68
2023/04/04 10:24:08;;;;;;;2.52;1.50;;;;;;;5.48;40.91;100975.87;1680013;85;25577;-62
2023/04/04 10:26:33;;;;;;;6.60;3.98;;;;;;;5.41;41.96;100974.24;1679558;85;27101;-62
2023/04/04 10:28:59;;;;;;;25.08;19.12;;;;;;;5.49;42.31;100972.94;1661756;85;25449;-62
2023/04/04 10:31:29;;;;;;;4.92;2.40;;;;;;;5.44;42.65;100975.59;1662068;85;25552;-70
2023/04/04 10:34:27;;;;;;;4.08;1.62;;;;;;;5.40;43.25;100973.95;1680051;85;25654;-66
2023/04/04 10:37:15;;;;;;;3.72;1.95;;;;;;;5.37;43.76;100974.46;1680081;85;25646;-66
2023/04/04 10:40:05;;;;;;;6.63;2.00;;;;;;;5.35;44.04;100969.89;1679886;85;27373;-65
2023/04/04 10:42:39;;;;;;;1.57;1.40;;;;;;;5.33;44.16;100969.86;1596855;89;27879;-66
2023/04/04 10:45:11;;;;;;;4.15;2.15;;;;;;;5.33;44.27;100969.34;1604178;89;25561;-65
2023/04/04 10:47:41;;;;;;;4.37;1.98;;;;;;;5.40;44.54;100960.54;1637877;87;25623;-67
2023/04/04 10:50:11;;;;;;;3.00;1.52;;;;;;;5.52;44.25;100954.98;1638042;87;25527;-66
2023/04/04 10:52:42;;;;;;;4.80;2.05;;;;;;;5.51;44.27;100957.38;1637770;87;27427;-66
2023/04/04 10:55:12;;;;;;;5.17;2.10;;;;;;;5.93;45.83;100953.86;1637700;87;25463;-66
2023/04/04 10:57:51;;;;;;;2.90;1.60;;;;;;;7.43;46.68;100948.23;1628660;87;25661;-66
2023/04/04 11:00:23;;;;;;;3.83;1.82;;;;;;;8.79;45.45;100953.08;1628114;88;26528;-66
2023/04/04 11:02:56;;;;;;;4.80;1.85;;;;;;;9.42;42.29;100942.04;1607002;88;25613;-66
2023/04/04 11:05:39;;;;;;;7.45;3.42;;;;;;;9.47;41.26;100942.78;1596787;89;28110;-65
2023/04/04 11:08:09;;;;;;;9.03;2.90;;;;;;;9.28;40.75;100943.23;1627789;88;25707;-65
2023/04/04 11:10:44;;;;;;;5.20;1.45;;;;;;;9.02;39.76;100944.80;1628145;88;25633;-65
2023/04/04 11:13:24;;;;;;;5.33;1.82;;;;;;;8.59;39.47;100945.92;1597139;89;26191;-67
2023/04/04 11:16:14;;;;;;;4.22;1.67;;;;;;;8.21;39.66;100953.10;1628276;88;25707;-67
2023/04/04 11:18:46;;;;;;;3.85;1.92;;;;;;;7.76;39.76;100946.00;1598789;88;28012;-65
2023/04/04 11:21:31;;;;;;;3.85;1.90;;;;;;;7.23;40.47;100951.74;1660409;85;25413;-84
2023/04/04 11:24:14;;;;;;;6.65;2.00;;;;;;;6.89;41.38;100952.27;1658790;85;25287;-81
2023/04/04 11:26:44;;;;;;;4.97;2.10;;;;;;;6.56;41.92;100942.84;1680834;85;25680;-76
2023/04/04 11:29:21;;;;;;;4.17;1.80;;;;;;;6.28;42.67;100947.06;1680675;85;25416;-76
2023/04/04 11:31:50;;;;;;;3.90;2.10;;;;;;;6.04;43.17;100944.54;1680496;85;27900;-81